Latest Weather Observations for Jimna

IDQ60901

Issued at 11:05 pm EST Saturday 1 November 2014 (issued every 10 minutes, with the page automatically refreshed every 10 minutes)

About weather observations | Map of Brisbane area stations | Latest observations for Brisbane area | Other Formats
Station Details ID: 040651 Name: JIMNA FORESTRY Lat: -26.66 Lon: 152.46 Height: 523.0 m
Data from the previous 72 hours. | See also: Recent months at Jimna
Date/Time
EST
Tmp

°C
App
Tmp
°C
Dew
Point
°C
Rel
Hum
%
Delta-T

°C
Wind Press
QNH
hPa
Press
MSL
hPa
Rain
since
9 am
mm
Dir
 
Spd
km/h
Gust
km/h
Spd
kts
Gust
kts
01/11:00pm 19.1 - 14.8 76 2.6 - - - - - - - 0.0
01/10:30pm 19.4 - 14.9 75 2.7 - - - - - - - 0.0
01/10:00pm 19.7 - 15.1 75 2.8 - - - - - - - 0.0
01/09:30pm 20.0 - 15.2 74 2.9 - - - - - - - 0.0
01/09:00pm 20.4 - 15.4 73 3.0 - - - - - - - 0.0
01/08:30pm 21.0 - 15.8 72 3.2 - - - - - - - 0.0
01/08:00pm 21.6 - 15.7 69 3.6 - - - - - - - 0.0
01/07:30pm 22.4 - 15.7 66 4.1 - - - - - - - 0.0
01/07:00pm 23.3 - 15.6 62 4.7 - - - - - - - 0.0
01/06:30pm 24.3 - 15.5 58 5.4 - - - - - - - 0.0
01/06:00pm 25.6 - 15.0 52 6.5 - - - - - - - 0.0
01/05:00pm 27.7 - 13.3 41 8.7 - - - - - - - 0.0
01/04:30pm 28.9 - 11.9 35 10.1 - - - - - - - 0.0
01/04:00pm 29.7 - 11.7 33 10.7 - - - - - - - 0.0
01/03:30pm 30.0 - 12.0 33 10.7 - - - - - - - 0.0
01/03:00pm 30.5 - 11.9 31 11.1 - - - - - - - 0.0
01/02:30pm 30.0 - 11.5 32 11.0 - - - - - - - 0.0
01/02:00pm 30.0 - 12.0 33 10.7 - - - - - - - 0.0
01/01:30pm 29.1 - 12.1 35 10.1 - - - - - - - 0.0
01/01:00pm 29.1 - 12.5 36 9.9 - - - - - - - 0.0
01/12:30pm 27.5 - 13.4 41 8.5 - - - - - - - 0.0
01/12:00pm 27.0 - 14.7 47 7.6 - - - - - - - 0.0
01/11:30am 26.3 - 13.4 45 7.8 - - - - - - - 0.0
01/11:00am 26.0 - 13.8 47 7.4 - - - - - - - 0.0
01/10:30am 25.0 - 13.9 50 6.7 - - - - - - - 0.0
01/10:00am 23.6 - 13.2 52 6.2 - - - - - - - 0.0
01/09:30am 22.5 - 14.9 62 4.6 - - - - - - - 0.0
01/09:00am 21.8 - 14.9 65 4.2 - - - - - - - 0.0
01/08:30am 21.8 - 14.9 65 4.2 - - - - - - - 0.0
01/08:00am 22.4 - 16.2 68 3.8 - - - - - - - 0.0
01/07:30am 20.9 - 15.4 71 3.3 - - - - - - - 0.0
01/07:00am 19.5 - 15.4 77 2.5 - - - - - - - 0.0
01/06:30am 19.5 - 15.6 78 2.4 - - - - - - - 0.0
01/06:00am 18.9 - 15.6 81 2.0 - - - - - - - 0.0
01/05:30am 18.1 - 15.4 84 1.6 - - - - - - - 0.0
01/05:00am 17.8 - 15.1 84 1.6 - - - - - - - 0.0
01/04:30am 17.9 - 14.8 82 1.8 - - - - - - - 0.0
01/04:00am 18.3 - 15.0 81 2.0 - - - - - - - 0.0
01/03:30am 18.5 - 15.0 80 2.1 - - - - - - - 0.0
01/03:00am 18.6 - 15.1 80 2.1 - - - - - - - 0.0
01/02:30am 18.7 - 15.4 81 2.0 - - - - - - - 0.0
01/02:00am 18.8 - 15.5 81 2.0 - - - - - - - 0.0
01/01:30am 18.7 - 15.6 82 1.9 - - - - - - - 0.0
01/01:00am 18.7 - 15.8 83 1.8 - - - - - - - 0.0
01/12:30am 18.7 - 15.8 83 1.8 - - - - - - - 0.0
01/12:00am 18.8 - 15.7 82 1.9 - - - - - - - 0.0
 
Date/Time
EST
Tmp

°C
App
Tmp
°C
Dew
Point
°C
Rel
Hum
%
Delta-T

°C
Wind Press
QNH
hPa
Press
MSL
hPa
Rain
since
9 am
mm
Dir
 
Spd
km/h
Gust
km/h
Spd
kts
Gust
kts
31/11:30pm 18.9 - 15.8 82 1.9 - - - - - - - 0.0
31/11:00pm 19.0 - 15.5 80 2.1 - - - - - - - 0.0
31/10:30pm 19.3 - 15.8 80 2.1 - - - - - - - 0.0
31/10:00pm 19.8 - 16.3 80 2.1 - - - - - - - 0.0
31/09:30pm 20.0 - 16.6 81 2.1 - - - - - - - 0.0
31/09:00pm 20.2 - 17.0 82 2.0 - - - - - - - 0.0
31/08:30pm 20.3 - 17.1 82 2.0 - - - - - - - 0.0
31/08:00pm 20.3 - 17.1 82 2.0 - - - - - - - 0.0
31/07:30pm 20.6 - 17.0 80 2.2 - - - - - - - 0.0
31/07:00pm 21.2 - 16.8 76 2.7 - - - - - - - 0.0
31/06:30pm 21.8 - 17.0 74 3.0 - - - - - - - 0.0
31/06:00pm 22.5 - 17.0 71 3.4 - - - - - - - 0.0
31/05:30pm 23.4 - 17.2 68 3.9 - - - - - - - 0.0
31/05:00pm 24.5 - 17.2 63 4.6 - - - - - - - 0.0
31/04:30pm 26.1 - 16.9 57 5.8 - - - - - - - 0.0
31/04:00pm 27.0 - 16.6 53 6.6 - - - - - - - 0.0
31/03:30pm 27.6 - 13.2 41 8.7 - - - - - - - 0.0
31/03:00pm 29.0 - 12.8 36 9.7 - - - - - - - 0.0
31/02:30pm 28.7 - 11.7 35 10.0 - - - - - - - 0.0
31/02:00pm 29.5 - 14.1 39 9.5 - - - - - - - 0.0
31/01:30pm 29.6 - 14.6 40 9.3 - - - - - - - 0.0
31/01:00pm 28.8 - 14.2 40 9.0 - - - - - - - 0.0
31/12:30pm 28.7 - 13.4 39 9.3 - - - - - - - 0.0
31/12:00pm 28.1 - 14.7 44 8.3 - - - - - - - 0.0
31/11:30am 27.6 - 14.9 45 7.9 - - - - - - - 0.0
31/11:00am 26.6 - 15.9 51 6.7 - - - - - - - 0.0
31/10:30am 26.0 - 15.7 53 6.4 - - - - - - - 0.0
31/10:00am 24.7 - 14.8 54 6.0 - - - - - - - 0.0
31/09:30am 24.1 - 15.9 60 5.1 - - - - - - - 0.0
31/09:00am 23.5 - 15.5 60 4.9 - - - - - - - 0.0
31/08:30am 22.7 - 15.5 64 4.4 - - - - - - - 0.0
31/08:00am 20.9 - 15.7 72 3.2 - - - - - - - 0.0
31/07:30am 20.9 - 15.7 72 3.2 - - - - - - - 0.0
31/07:00am 20.2 - 16.0 77 2.6 - - - - - - - 0.0
31/06:30am 19.8 - 16.1 79 2.3 - - - - - - - 0.0
31/06:00am 19.2 - 15.9 81 2.0 - - - - - - - 0.0
31/05:30am 19.2 - 16.2 83 1.8 - - - - - - - 0.0
31/05:00am 19.1 - 16.1 83 1.8 - - - - - - - 0.0
31/04:30am 19.1 - 16.3 84 1.7 - - - - - - - 0.0
31/04:00am 19.1 - 16.5 85 1.6 - - - - - - - 0.0
31/03:30am 19.1 - 16.5 85 1.6 - - - - - - - 0.0
31/03:00am 19.2 - 16.4 84 1.7 - - - - - - - 0.0
31/02:30am 19.3 - 16.5 84 1.7 - - - - - - - 0.0
31/02:00am 19.3 - 16.7 85 1.6 - - - - - - - 0.0
31/01:30am 19.3 - 16.7 85 1.6 - - - - - - - 0.0
31/01:00am 19.2 - 16.8 86 1.5 - - - - - - - 0.0
31/12:30am 19.2 - 16.8 86 1.5 - - - - - - - 0.0
31/12:00am 19.2 - 16.8 86 1.5 - - - - - - - 0.0
 
Date/Time
EST
Tmp

°C
App
Tmp
°C
Dew
Point
°C
Rel
Hum
%
Delta-T

°C
Wind Press
QNH
hPa
Press
MSL
hPa
Rain
since
9 am
mm
Dir
 
Spd
km/h
Gust
km/h
Spd
kts
Gust
kts
30/11:30pm 19.2 - 17.0 87 1.4 - - - - - - - 0.0
30/11:00pm 19.1 - 16.9 87 1.4 - - - - - - - 0.0
30/10:30pm 19.2 - 16.8 86 1.5 - - - - - - - 0.0
30/10:00pm 19.2 - 16.8 86 1.5 - - - - - - - 0.0
30/09:30pm 19.1 - 16.7 86 1.5 - - - - - - - 0.0
30/09:00pm 19.2 - 16.6 85 1.6 - - - - - - - 0.0
30/08:30pm 19.3 - 16.5 84 1.7 - - - - - - - 0.0
30/08:00pm 19.3 - 16.3 83 1.8 - - - - - - - 0.0
30/07:30pm 20.0 - 17.0 83 1.9 - - - - - - - 0.0
30/07:00pm 20.1 - 16.7 81 2.1 - - - - - - - 0.0
30/06:30pm 20.8 - 16.8 78 2.5 - - - - - - - 0.0
30/06:00pm 21.8 - 17.0 74 3.0 - - - - - - - 0.0
30/05:30pm 22.9 - 16.9 69 3.8 - - - - - - - 0.0
30/05:00pm 23.8 - 16.8 65 4.4 - - - - - - - 0.0
30/04:30pm 24.6 - 16.8 62 4.9 - - - - - - - 0.0
30/04:00pm 25.8 - 16.4 56 5.9 - - - - - - - 0.0
30/03:30pm 28.1 - 13.6 41 8.8 - - - - - - - 0.0
30/03:00pm 27.4 - 13.7 43 8.3 - - - - - - - 0.0
30/02:30pm 28.0 - 13.5 41 8.8 - - - - - - - 0.0
30/02:00pm 27.6 - 13.2 41 8.7 - - - - - - - 0.0
30/01:30pm 27.3 - 12.5 40 8.8 - - - - - - - 0.0
30/01:00pm 27.6 - 13.9 43 8.3 - - - - - - - 0.0
30/12:30pm 27.0 - 13.4 43 8.2 - - - - - - - 0.0
30/12:00pm 28.1 - 14.3 42 8.5 - - - - - - - 0.0
30/11:30am 27.2 - 13.9 44 8.1 - - - - - - - 0.0
30/11:00am 26.5 - 14.9 49 7.1 - - - - - - - 0.0
30/10:30am 25.9 - 15.6 53 6.4 - - - - - - - 0.0
30/10:00am 24.6 - 14.4 53 6.2 - - - - - - - 0.0
30/09:30am 24.1 - 14.8 56 5.7 - - - - - - - 0.0
30/09:00am 22.9 - 14.7 60 5.0 - - - - - - - -
30/08:30am 22.1 - 15.0 64 4.3 - - - - - - - -
30/08:00am 20.4 - 15.2 72 3.1 - - - - - - - -
30/07:30am 19.0 - 15.1 78 2.3 - - - - - - - -
30/07:00am 17.9 - 15.5 86 1.4 - - - - - - - -
30/06:30am 16.3 - 15.0 92 0.8 - - - - - - - -
30/06:00am 14.8 - 13.7 93 0.6 - - - - - - - -
30/05:30am 13.8 - 12.4 91 0.8 - - - - - - - -
30/05:00am 13.7 - 12.3 91 0.8 - - - - - - - -
30/04:30am 13.9 - 12.3 90 0.9 - - - - - - - -
30/04:00am 14.3 - 12.7 90 0.9 - - - - - - - -
30/03:30am 14.8 - 13.2 90 0.9 - - - - - - - -
30/03:00am 15.2 - 13.6 90 0.9 - - - - - - - -
30/02:30am 15.6 - 14.0 90 0.9 - - - - - - - -
30/02:00am 15.8 - 14.0 89 1.0 - - - - - - - -
30/01:30am 16.1 - 13.9 87 1.3 - - - - - - - -
30/01:00am 16.6 - 14.2 86 1.4 - - - - - - - -
30/12:30am 17.4 - 14.9 85 1.5 - - - - - - - -
30/12:00am 17.4 - 14.9 85 1.5 - - - - - - - -
 
Date/Time
EST
Tmp

°C
App
Tmp
°C
Dew
Point
°C
Rel
Hum
%
Delta-T

°C
Wind Press
QNH
hPa
Press
MSL
hPa
Rain
since
9 am
mm
Dir
 
Spd
km/h
Gust
km/h
Spd
kts
Gust
kts
29/11:30pm 17.6 - 15.0 85 1.5 - - - - - - - -

Latest Capital City Observations: Canberra | Sydney | Melbourne | Brisbane | Adelaide | Perth | Hobart | Darwin

Other Formats:

Comma delimited format used in spreadsheet applications
http://www.bom.gov.au/fwo/IDQ60901/IDQ60901.94557.axf

JavaScript Object Notation format (JSON) in row-major order
http://www.bom.gov.au/fwo/IDQ60901/IDQ60901.94557.json